createdAt,value
2022-11-05T00:00:27.663Z,9.40
2022-11-05T00:01:27.704Z,9.70
2022-11-05T00:02:27.638Z,9.10
2022-11-05T00:03:27.664Z,9.60
2022-11-05T00:04:30.970Z,9.80
2022-11-05T00:05:27.563Z,9.30
2022-11-05T00:06:27.539Z,9.50
2022-11-05T00:07:27.524Z,9.70
2022-11-05T00:08:27.497Z,9.10
2022-11-05T00:09:27.507Z,9.40
2022-11-05T00:10:27.458Z,9.90
2022-11-05T00:11:27.439Z,9.40
2022-11-05T00:12:27.417Z,9.70
2022-11-05T00:13:27.398Z,8.80
2022-11-05T00:14:27.373Z,9.00
2022-11-05T00:15:27.366Z,9.10
2022-11-05T00:16:27.333Z,9.00
2022-11-05T00:17:27.314Z,8.90
2022-11-05T00:18:27.290Z,9.10
2022-11-05T00:19:27.279Z,9.40
2022-11-05T00:20:27.252Z,8.80
2022-11-05T00:21:27.244Z,9.60
2022-11-05T00:22:27.211Z,9.20
2022-11-05T00:23:27.190Z,9.20
2022-11-05T00:24:27.171Z,9.80
2022-11-05T00:25:27.172Z,9.90
2022-11-05T00:26:27.128Z,9.50
2022-11-05T00:27:27.106Z,9.20
2022-11-05T00:28:27.093Z,8.80
2022-11-05T00:29:27.067Z,9.30
2022-11-05T00:30:27.046Z,8.70
2022-11-05T00:31:27.024Z,8.30
2022-11-05T00:32:27.007Z,8.70
2022-11-05T00:33:26.985Z,9.40
2022-11-05T00:34:26.967Z,9.70
2022-11-05T00:35:26.946Z,8.80
2022-11-05T00:36:26.922Z,9.00
2022-11-05T00:37:26.911Z,8.20
2022-11-05T00:38:26.884Z,8.80
2022-11-05T00:39:26.875Z,8.80
2022-11-05T00:40:26.844Z,9.30
2022-11-05T00:41:26.906Z,9.00
2022-11-05T00:42:26.810Z,9.00
2022-11-05T00:43:26.780Z,9.00
2022-11-05T00:44:26.767Z,9.10
2022-11-05T00:45:26.761Z,8.80
2022-11-05T00:46:26.721Z,8.80
2022-11-05T00:47:26.699Z,8.60
2022-11-05T00:48:26.677Z,8.80
2022-11-05T00:49:26.656Z,9.00
2022-11-05T00:50:26.639Z,9.40
2022-11-05T00:51:26.614Z,9.50
2022-11-05T00:52:26.590Z,8.80
2022-11-05T00:53:26.570Z,8.10
2022-11-05T00:54:26.549Z,8.50
2022-11-05T00:55:26.534Z,8.70
2022-11-05T00:56:26.506Z,9.10
2022-11-05T00:57:26.510Z,9.10
2022-11-05T00:58:26.479Z,8.80
2022-11-05T00:59:26.448Z,9.50
2022-11-05T01:00:26.456Z,8.90
2022-11-05T01:01:26.540Z,9.10
2022-11-05T01:02:26.546Z,9.80
2022-11-05T01:03:26.366Z,9.40
2022-11-05T01:04:26.343Z,8.60
2022-11-05T01:05:26.322Z,8.50
2022-11-05T01:06:26.301Z,9.10
2022-11-05T01:07:26.288Z,9.60
2022-11-05T01:08:26.257Z,9.10
2022-11-05T01:09:26.237Z,8.60
2022-11-05T01:10:26.218Z,8.80
2022-11-05T01:11:26.195Z,8.90
2022-11-05T01:12:26.178Z,8.40
2022-11-05T01:13:26.173Z,8.60
2022-11-05T01:14:26.136Z,9.30
2022-11-05T01:15:26.116Z,9.20
2022-11-05T01:16:26.090Z,8.50
2022-11-05T01:17:26.070Z,7.90
2022-11-05T01:18:26.051Z,9.30
2022-11-05T01:19:26.028Z,9.00
2022-11-05T01:20:26.008Z,8.80
2022-11-05T01:21:25.986Z,8.30
2022-11-05T01:22:25.967Z,8.20
2022-11-05T01:23:25.947Z,8.30
2022-11-05T01:24:25.936Z,8.40
2022-11-05T01:25:25.904Z,8.80
2022-11-05T01:26:25.883Z,8.90
2022-11-05T01:27:25.859Z,8.70
2022-11-05T01:28:25.921Z,8.10
2022-11-05T01:29:25.842Z,8.80
2022-11-05T01:30:25.805Z,8.70
2022-11-05T01:31:25.776Z,8.50
2022-11-05T01:32:25.763Z,8.50
2022-11-05T01:33:25.736Z,9.60
2022-11-05T01:34:25.717Z,10.50
2022-11-05T01:35:25.695Z,10.50
2022-11-05T01:36:25.671Z,10.30
2022-11-05T01:37:25.649Z,10.70
2022-11-05T01:38:25.631Z,10.70
2022-11-05T01:39:25.612Z,11.60
2022-11-05T01:40:25.589Z,12.30
2022-11-05T01:41:25.571Z,13.50
2022-11-05T01:42:25.547Z,13.70
2022-11-05T01:43:25.524Z,12.80
2022-11-05T01:44:25.507Z,13.80
2022-11-05T01:45:25.505Z,14.60
2022-11-05T01:46:25.463Z,14.00
2022-11-05T01:47:25.442Z,14.10
2022-11-05T01:48:25.420Z,14.50
2022-11-05T01:49:25.402Z,14.20
2022-11-05T01:50:25.376Z,14.10
2022-11-05T01:51:25.358Z,14.70
2022-11-05T01:52:25.342Z,14.40
2022-11-05T01:53:25.317Z,14.40
2022-11-05T01:54:25.295Z,14.50
2022-11-05T01:55:25.273Z,16.00
2022-11-05T01:56:25.257Z,14.80
2022-11-05T01:57:25.237Z,15.70
2022-11-05T01:58:25.211Z,15.70
2022-11-05T01:59:25.191Z,15.60
2022-11-05T02:00:25.170Z,14.70
2022-11-05T02:01:25.278Z,15.70
2022-11-05T02:02:25.364Z,15.70
2022-11-05T02:03:25.106Z,16.20
2022-11-05T02:04:25.082Z,15.70
2022-11-05T02:05:25.071Z,15.70
2022-11-05T02:06:25.040Z,16.40
2022-11-05T02:07:25.021Z,16.60
2022-11-05T02:08:24.999Z,15.50
2022-11-05T02:09:24.987Z,15.30
2022-11-05T02:10:24.954Z,15.50
2022-11-05T02:11:24.940Z,15.80
2022-11-05T02:12:24.917Z,16.10
2022-11-05T02:13:24.899Z,15.90
2022-11-05T02:14:24.870Z,15.80
2022-11-05T02:15:24.848Z,15.80
2022-11-05T02:16:24.827Z,16.50
2022-11-05T02:17:24.910Z,16.60
2022-11-05T02:18:24.784Z,16.20
2022-11-05T02:19:24.765Z,16.80
2022-11-05T02:20:24.742Z,14.80
2022-11-05T02:21:24.720Z,15.70
2022-11-05T02:22:24.701Z,16.40
2022-11-05T02:23:24.684Z,15.10
2022-11-05T02:24:24.659Z,15.90
2022-11-05T02:25:24.634Z,15.30
2022-11-05T02:26:24.614Z,17.00
2022-11-05T02:27:24.592Z,15.90
2022-11-05T02:28:24.571Z,15.90
2022-11-05T02:29:24.554Z,15.40
2022-11-05T02:30:24.534Z,17.20
2022-11-05T02:31:24.507Z,16.00
2022-11-05T02:32:24.491Z,16.30
2022-11-05T02:33:24.485Z,17.10
2022-11-05T02:34:24.446Z,15.90
2022-11-05T02:35:24.425Z,16.60
2022-11-05T02:36:24.405Z,15.60
2022-11-05T02:37:24.387Z,16.30
2022-11-05T02:38:24.367Z,16.50
2022-11-05T02:39:24.337Z,15.90
2022-11-05T02:40:24.311Z,16.10
2022-11-05T02:41:24.297Z,15.70
2022-11-05T02:42:24.267Z,15.70
2022-11-05T02:43:24.250Z,15.50
2022-11-05T02:44:24.230Z,15.30
2022-11-05T02:45:24.210Z,14.90
2022-11-05T02:46:24.185Z,14.90
2022-11-05T02:47:24.162Z,14.90
2022-11-05T02:48:24.140Z,14.30
2022-11-05T02:49:24.140Z,14.50
2022-11-05T02:50:24.101Z,14.00
2022-11-05T02:51:24.226Z,13.90
2022-11-05T02:52:24.059Z,14.00
2022-11-05T02:53:24.041Z,13.10
2022-11-05T02:54:24.015Z,12.70
2022-11-05T02:55:23.993Z,12.90
2022-11-05T02:56:23.972Z,12.40
2022-11-05T02:57:23.952Z,12.50
2022-11-05T02:58:23.924Z,12.90
2022-11-05T02:59:23.903Z,12.20
2022-11-05T03:00:23.888Z,12.00
2022-11-05T03:01:23.995Z,13.10
2022-11-05T03:02:23.912Z,12.40
2022-11-05T03:03:23.820Z,12.50
2022-11-05T03:04:23.799Z,12.70
2022-11-05T03:05:23.796Z,13.00
2022-11-05T03:06:23.757Z,13.50
2022-11-05T03:07:23.738Z,12.30
2022-11-05T03:08:23.714Z,12.80
2022-11-05T03:09:23.692Z,12.60
2022-11-05T03:10:23.672Z,12.60
2022-11-05T03:11:23.650Z,13.30
2022-11-05T03:12:23.624Z,12.60
2022-11-05T03:13:23.610Z,12.80
2022-11-05T03:14:23.586Z,13.70
2022-11-05T03:15:23.561Z,13.00
2022-11-05T03:16:23.539Z,14.00
2022-11-05T03:17:23.515Z,13.20
2022-11-05T03:18:23.494Z,13.20
2022-11-05T03:19:23.475Z,12.10
2022-11-05T03:20:23.455Z,12.90
2022-11-05T03:21:23.459Z,13.20
2022-11-05T03:22:23.408Z,12.60
2022-11-05T03:23:23.396Z,13.40
2022-11-05T03:24:23.367Z,12.80
2022-11-05T03:25:23.343Z,12.50
2022-11-05T03:26:23.322Z,13.50
2022-11-05T03:27:23.300Z,13.20
2022-11-05T03:28:23.278Z,12.60
2022-11-05T03:29:23.256Z,12.90
2022-11-05T03:30:23.234Z,13.00
2022-11-05T03:31:23.214Z,12.60
2022-11-05T03:32:23.196Z,13.80
2022-11-05T03:33:23.174Z,12.70
2022-11-05T03:34:23.148Z,12.70
2022-11-05T03:35:23.127Z,13.20
2022-11-05T03:36:23.105Z,13.50
2022-11-05T03:37:23.107Z,12.90
2022-11-05T03:38:23.069Z,13.60
2022-11-05T03:39:23.042Z,13.60
2022-11-05T03:40:23.019Z,13.40
2022-11-05T03:41:22.997Z,13.80
2022-11-05T03:42:22.974Z,14.20
2022-11-05T03:43:22.960Z,13.50
2022-11-05T03:44:22.929Z,13.90
2022-11-05T03:45:22.915Z,18.00
2022-11-05T03:46:22.891Z,21.50
2022-11-05T03:47:22.871Z,20.40
2022-11-05T03:48:22.921Z,20.00
2022-11-05T03:49:22.824Z,16.00
2022-11-05T03:50:22.798Z,14.80
2022-11-05T03:51:22.782Z,14.60
2022-11-05T03:52:22.762Z,15.00
2022-11-05T03:53:22.761Z,15.00
2022-11-05T03:54:22.712Z,16.20
2022-11-05T03:55:22.697Z,17.20
2022-11-05T03:56:22.672Z,16.40
2022-11-05T03:57:22.649Z,14.90
2022-11-05T03:58:22.630Z,14.90
2022-11-05T03:59:22.611Z,15.00
2022-11-05T04:00:22.586Z,15.00
2022-11-05T04:01:22.716Z,15.30
2022-11-05T04:02:22.662Z,15.20
2022-11-05T04:03:22.523Z,14.00
2022-11-05T04:04:22.498Z,14.30
2022-11-05T04:05:22.476Z,15.20
2022-11-05T04:06:22.457Z,14.40
2022-11-05T04:07:22.438Z,14.70
2022-11-05T04:08:22.412Z,14.00
2022-11-05T04:09:22.418Z,15.20
2022-11-05T04:10:22.362Z,13.60
2022-11-05T04:11:22.344Z,14.40
2022-11-05T04:12:22.321Z,14.90
2022-11-05T04:13:22.302Z,14.80
2022-11-05T04:14:22.283Z,14.30
2022-11-05T04:15:22.261Z,14.40
2022-11-05T04:16:22.234Z,14.00
2022-11-05T04:17:22.213Z,14.90
2022-11-05T04:18:22.190Z,14.90
2022-11-05T04:19:26.107Z,14.60
2022-11-05T04:20:22.147Z,14.80
2022-11-05T04:21:22.126Z,15.20
2022-11-05T04:22:22.103Z,14.90
2022-11-05T04:23:22.087Z,16.10
2022-11-05T04:24:22.066Z,15.90
2022-11-05T04:25:22.157Z,16.20
2022-11-05T04:26:22.016Z,15.30
2022-11-05T04:27:21.993Z,16.20
2022-11-05T04:28:21.970Z,15.40
2022-11-05T04:29:21.947Z,15.70
2022-11-05T04:30:22.032Z,15.90
2022-11-05T04:31:21.906Z,14.30
2022-11-05T04:32:21.882Z,14.30
2022-11-05T04:33:21.866Z,15.20
2022-11-05T04:34:21.838Z,15.30
2022-11-05T04:35:21.825Z,15.80
2022-11-05T04:36:21.796Z,16.20
2022-11-05T04:37:21.773Z,15.80
2022-11-05T04:38:21.750Z,15.50
2022-11-05T04:39:21.734Z,15.90
2022-11-05T04:40:21.710Z,16.10
2022-11-05T04:41:21.844Z,16.00
2022-11-05T04:42:21.666Z,15.90
2022-11-05T04:43:22.113Z,16.00
2022-11-05T04:44:21.620Z,16.90
2022-11-05T04:45:21.601Z,16.80
2022-11-05T04:46:21.579Z,15.80
2022-11-05T04:47:21.553Z,16.30
2022-11-05T04:48:21.532Z,16.70
2022-11-05T04:49:21.515Z,16.90
2022-11-05T04:50:21.495Z,16.90
2022-11-05T04:51:21.467Z,16.50
2022-11-05T04:52:21.443Z,16.60
2022-11-05T04:53:21.421Z,17.30
2022-11-05T04:54:21.402Z,16.40
2022-11-05T04:55:21.381Z,17.00
2022-11-05T04:56:21.365Z,16.80
2022-11-05T04:57:21.351Z,16.70
2022-11-05T04:58:21.308Z,17.20
2022-11-05T04:59:21.293Z,16.50
2022-11-05T05:00:21.269Z,16.50
2022-11-05T05:01:21.435Z,17.70
2022-11-05T05:02:21.294Z,16.70
2022-11-05T05:03:21.206Z,16.70
2022-11-05T05:04:21.193Z,15.90
2022-11-05T05:05:21.177Z,16.60
2022-11-05T05:06:21.136Z,16.70
2022-11-05T05:07:21.113Z,17.90
2022-11-05T05:08:21.092Z,16.10
2022-11-05T05:09:21.068Z,16.90
2022-11-05T05:10:21.041Z,16.40
2022-11-05T05:11:21.036Z,16.40
2022-11-05T05:12:21.002Z,16.80
2022-11-05T05:13:20.998Z,17.40
2022-11-05T05:14:20.965Z,17.30
2022-11-05T05:15:20.936Z,16.60
2022-11-05T05:16:20.914Z,17.20
2022-11-05T05:17:20.890Z,16.50
2022-11-05T05:18:20.869Z,16.20
2022-11-05T05:19:20.845Z,16.40
2022-11-05T05:20:20.827Z,17.00
2022-11-05T05:21:20.807Z,17.50
2022-11-05T05:22:20.779Z,16.80
2022-11-05T05:23:20.758Z,16.80
2022-11-05T05:24:20.734Z,17.70
2022-11-05T05:25:20.712Z,17.30
2022-11-05T05:26:20.685Z,18.30
2022-11-05T05:27:20.667Z,17.50
2022-11-05T05:28:20.645Z,18.90
2022-11-05T05:29:20.642Z,18.70
2022-11-05T05:30:20.597Z,17.90
2022-11-05T05:31:20.577Z,19.80
2022-11-05T05:32:20.558Z,18.90
2022-11-05T05:33:20.533Z,19.10
2022-11-05T05:34:20.536Z,18.40
2022-11-05T05:35:20.489Z,18.50
2022-11-05T05:36:20.467Z,18.10
2022-11-05T05:37:20.443Z,18.40
2022-11-05T05:38:20.419Z,18.60
2022-11-05T05:39:20.400Z,18.50
2022-11-05T05:40:20.388Z,18.20
2022-11-05T05:41:20.360Z,18.30
2022-11-05T05:42:20.331Z,18.00
2022-11-05T05:43:20.310Z,18.10
2022-11-05T05:44:20.287Z,17.70
2022-11-05T05:45:20.373Z,17.90
2022-11-05T05:46:20.245Z,18.00
2022-11-05T05:47:20.223Z,17.60
2022-11-05T05:48:20.196Z,17.50
2022-11-05T05:49:20.177Z,18.00
2022-11-05T05:50:20.157Z,18.00
2022-11-05T05:51:20.139Z,17.80
2022-11-05T05:52:20.111Z,18.60
2022-11-05T05:53:20.085Z,18.00
2022-11-05T05:54:20.065Z,18.50
2022-11-05T05:55:20.044Z,17.60
2022-11-05T05:56:20.018Z,18.30
2022-11-05T05:57:19.997Z,17.60
2022-11-05T05:58:19.971Z,17.90
2022-11-05T05:59:19.955Z,17.80
2022-11-05T06:00:19.932Z,17.50
2022-11-05T06:01:20.405Z,17.50
2022-11-05T06:02:20.064Z,17.30
2022-11-05T06:03:19.863Z,17.10
2022-11-05T06:04:19.842Z,18.00
2022-11-05T06:05:19.817Z,17.60
2022-11-05T06:06:19.950Z,18.90
2022-11-05T06:07:19.777Z,17.40
2022-11-05T06:08:19.756Z,18.30
2022-11-05T06:09:19.727Z,17.40
2022-11-05T06:10:19.737Z,18.30
2022-11-05T06:11:19.689Z,17.70
2022-11-05T06:12:19.662Z,17.80
2022-11-05T06:13:19.641Z,18.30
2022-11-05T06:14:19.621Z,18.30
2022-11-05T06:15:19.605Z,18.30
2022-11-05T06:16:19.580Z,17.90
2022-11-05T06:17:19.577Z,18.90
2022-11-05T06:18:19.529Z,17.50
2022-11-05T06:19:19.505Z,18.90
2022-11-05T06:20:19.491Z,17.80
2022-11-05T06:21:19.559Z,17.30
2022-11-05T06:22:19.443Z,17.00
2022-11-05T06:23:19.418Z,17.10
2022-11-05T06:24:19.395Z,17.20
2022-11-05T06:25:19.369Z,17.50
2022-11-05T06:26:19.349Z,16.30
2022-11-05T06:27:19.328Z,15.60
2022-11-05T06:28:19.325Z,17.40
2022-11-05T06:29:19.288Z,16.70
2022-11-05T06:30:19.266Z,16.70
2022-11-05T06:31:19.249Z,16.80
2022-11-05T06:32:19.222Z,16.50
2022-11-05T06:33:19.216Z,17.50
2022-11-05T06:34:19.172Z,17.00
2022-11-05T06:35:19.147Z,17.60
2022-11-05T06:36:19.148Z,17.30
2022-11-05T06:37:19.103Z,17.40
2022-11-05T06:38:19.080Z,17.30
2022-11-05T06:39:19.060Z,17.60
2022-11-05T06:40:19.033Z,18.40
2022-11-05T06:41:19.013Z,18.30
2022-11-05T06:42:19.591Z,18.10
2022-11-05T06:43:18.976Z,17.20
2022-11-05T06:44:18.944Z,18.30
2022-11-05T06:45:18.925Z,18.40
2022-11-05T06:46:18.901Z,18.40
2022-11-05T06:47:18.883Z,18.10
2022-11-05T06:48:18.855Z,18.20
2022-11-05T06:49:18.852Z,19.20
2022-11-05T06:50:18.810Z,18.90
2022-11-05T06:51:18.787Z,18.70
2022-11-05T06:52:18.766Z,19.50
2022-11-05T06:53:18.738Z,19.50
2022-11-05T06:54:18.718Z,19.00
2022-11-05T06:55:18.702Z,19.80
2022-11-05T06:56:18.677Z,20.20
2022-11-05T06:57:18.656Z,19.00
2022-11-05T06:58:18.647Z,20.30
2022-11-05T06:59:18.612Z,19.10
2022-11-05T07:00:18.588Z,19.10
2022-11-05T07:01:18.692Z,20.00
2022-11-05T07:02:18.596Z,19.60
2022-11-05T07:03:18.519Z,19.60
2022-11-05T07:04:18.499Z,19.10
2022-11-05T07:05:18.495Z,19.70
2022-11-05T07:06:18.462Z,18.90
2022-11-05T07:07:18.430Z,19.50
2022-11-05T07:08:18.408Z,19.70
2022-11-05T07:09:18.381Z,19.40
2022-11-05T07:10:18.362Z,20.00
2022-11-05T07:11:18.337Z,20.50
2022-11-05T07:12:18.314Z,20.90
2022-11-05T07:13:18.301Z,20.10
2022-11-05T07:14:18.273Z,21.00
2022-11-05T07:15:18.257Z,20.00
2022-11-05T07:16:18.227Z,20.60
2022-11-05T07:17:18.214Z,20.90
2022-11-05T07:18:18.195Z,21.10
2022-11-05T07:19:18.161Z,20.70
2022-11-05T07:20:18.141Z,21.20
2022-11-05T07:21:18.135Z,21.90
2022-11-05T07:22:18.094Z,20.70
2022-11-05T07:23:18.083Z,22.30
2022-11-05T07:24:18.048Z,22.60
2022-11-05T07:25:18.029Z,21.40
2022-11-05T07:26:18.006Z,21.60
2022-11-05T07:27:17.985Z,21.60
2022-11-05T07:28:17.959Z,21.30
2022-11-05T07:29:17.944Z,20.10
2022-11-05T07:30:17.916Z,20.50
2022-11-05T07:31:17.897Z,20.80
2022-11-05T07:32:17.872Z,20.40
2022-11-05T07:33:17.848Z,19.50
2022-11-05T07:34:17.829Z,20.60
2022-11-05T07:35:17.804Z,21.00
2022-11-05T07:36:17.785Z,21.00
2022-11-05T07:37:17.783Z,20.40
2022-11-05T07:38:17.742Z,20.20
2022-11-05T07:39:17.716Z,21.20
2022-11-05T07:40:17.694Z,21.70
2022-11-05T07:41:17.677Z,21.00
2022-11-05T07:42:17.654Z,21.70
2022-11-05T07:43:17.624Z,21.90
2022-11-05T07:44:17.598Z,21.40
2022-11-05T07:45:17.579Z,22.60
2022-11-05T07:46:17.556Z,22.50
2022-11-05T07:47:17.540Z,22.40
2022-11-05T07:48:17.512Z,23.20
2022-11-05T07:49:17.493Z,21.80
2022-11-05T07:50:17.472Z,23.10
2022-11-05T07:51:17.447Z,21.80
2022-11-05T07:52:17.431Z,24.50
2022-11-05T07:53:17.425Z,23.90
2022-11-05T07:54:17.381Z,23.40
2022-11-05T07:55:17.360Z,23.30
2022-11-05T07:56:17.336Z,21.20
2022-11-05T07:57:17.314Z,23.60
2022-11-05T07:58:17.296Z,22.50
2022-11-05T07:59:17.268Z,23.10
2022-11-05T08:00:17.252Z,22.50
2022-11-05T08:01:17.583Z,22.90
2022-11-05T08:02:17.329Z,22.50
2022-11-05T08:03:17.876Z,22.80
2022-11-05T08:04:17.158Z,22.50
2022-11-05T08:05:17.136Z,22.40
2022-11-05T08:06:17.113Z,23.20
2022-11-05T08:07:17.094Z,23.80
2022-11-05T08:08:17.072Z,24.10
2022-11-05T08:09:17.070Z,23.50
2022-11-05T08:10:17.026Z,23.10
2022-11-05T08:11:17.007Z,23.30
2022-11-05T08:12:16.983Z,23.40
2022-11-05T08:13:16.969Z,23.30
2022-11-05T08:14:16.941Z,22.90
2022-11-05T08:15:16.922Z,22.30
2022-11-05T08:16:16.898Z,21.30
2022-11-05T08:17:18.549Z,21.80
2022-11-05T08:18:16.862Z,21.40
2022-11-05T08:19:16.836Z,20.40
2022-11-05T08:20:16.811Z,20.80
2022-11-05T08:21:16.796Z,20.90
2022-11-05T08:22:16.767Z,20.80
2022-11-05T08:23:16.756Z,19.50
2022-11-05T08:24:16.730Z,20.30
2022-11-05T08:25:16.734Z,19.50
2022-11-05T08:26:16.693Z,18.80
2022-11-05T08:27:16.668Z,18.90
2022-11-05T08:28:16.651Z,18.60
2022-11-05T08:29:16.629Z,19.30
2022-11-05T08:30:16.607Z,19.40
2022-11-05T08:31:16.588Z,17.40
2022-11-05T08:32:16.569Z,17.80
2022-11-05T08:33:16.657Z,17.80
2022-11-05T08:34:16.531Z,17.00
2022-11-05T08:35:16.507Z,17.30
2022-11-05T08:36:16.492Z,16.00
2022-11-05T08:37:16.468Z,14.10
2022-11-05T08:38:16.454Z,14.20
2022-11-05T08:39:17.164Z,13.80
2022-11-05T08:40:16.418Z,14.10
2022-11-05T08:41:16.419Z,13.60
2022-11-05T08:42:16.376Z,13.90
2022-11-05T08:43:16.362Z,13.90
2022-11-05T08:44:16.357Z,13.80
2022-11-05T08:45:16.322Z,14.00
2022-11-05T08:46:16.331Z,14.40
2022-11-05T08:47:16.297Z,12.90
2022-11-05T08:48:16.273Z,12.10
2022-11-05T08:49:16.261Z,12.40
2022-11-05T08:50:16.246Z,12.50
2022-11-05T08:51:16.234Z,13.00
2022-11-05T08:52:16.215Z,11.50
2022-11-05T08:53:16.312Z,11.60
2022-11-05T08:54:16.190Z,12.40
2022-11-05T08:55:16.191Z,11.30
2022-11-05T08:56:16.163Z,12.20
2022-11-05T08:57:16.170Z,12.20
2022-11-05T08:58:16.136Z,11.20
2022-11-05T08:59:16.125Z,11.80
2022-11-05T09:00:16.252Z,10.40
2022-11-05T09:01:16.133Z,13.80
2022-11-05T09:02:16.192Z,15.40
2022-11-05T09:03:16.292Z,11.70
2022-11-05T09:04:16.067Z,10.40
2022-11-05T09:05:16.052Z,10.60
2022-11-05T09:06:16.043Z,10.70
2022-11-05T09:07:16.038Z,10.90
2022-11-05T09:08:16.039Z,10.40
2022-11-05T09:09:16.014Z,10.30
2022-11-05T09:10:16.003Z,10.70
2022-11-05T09:11:15.995Z,10.10
2022-11-05T09:12:15.979Z,10.20
2022-11-05T09:13:19.542Z,10.40
2022-11-05T09:14:15.962Z,10.10
2022-11-05T09:15:15.953Z,10.20
2022-11-05T09:16:15.942Z,10.00
2022-11-05T09:17:15.932Z,9.90
2022-11-05T09:18:15.933Z,9.90
2022-11-05T09:19:15.915Z,9.60
2022-11-05T09:20:15.903Z,9.40
2022-11-05T09:21:15.893Z,9.30
2022-11-05T09:22:15.891Z,9.70
2022-11-05T09:23:15.918Z,9.50
2022-11-05T09:24:15.862Z,9.50
2022-11-05T09:25:15.858Z,9.20
2022-11-05T09:26:15.845Z,9.10
2022-11-05T09:27:15.836Z,9.00
2022-11-05T09:28:17.169Z,9.60
2022-11-05T09:29:15.924Z,8.80
2022-11-05T09:30:15.810Z,8.90
2022-11-05T09:31:15.811Z,8.80
2022-11-05T09:32:15.787Z,9.60
2022-11-05T09:33:15.781Z,9.60
2022-11-05T09:34:15.766Z,8.70
2022-11-05T09:35:15.760Z,9.60
2022-11-05T09:36:15.750Z,9.90
2022-11-05T09:37:15.740Z,8.70
2022-11-05T09:38:15.738Z,9.50
2022-11-05T09:39:15.719Z,9.80
2022-11-05T09:40:15.714Z,9.80
2022-11-05T09:41:15.703Z,8.70
2022-11-05T09:42:15.687Z,9.30
2022-11-05T09:43:15.680Z,8.80
2022-11-05T09:44:15.670Z,9.70
2022-11-05T09:45:15.684Z,8.80
2022-11-05T09:46:15.654Z,8.90
2022-11-05T09:47:15.646Z,9.10
2022-11-05T09:48:15.629Z,8.90
2022-11-05T09:49:15.622Z,8.60
2022-11-05T09:50:15.614Z,9.30
2022-11-05T09:51:20.765Z,8.80
2022-11-05T09:52:15.594Z,8.80
2022-11-05T09:53:15.579Z,9.40
2022-11-05T09:54:15.570Z,8.70
2022-11-05T09:55:15.558Z,8.60
2022-11-05T09:56:15.538Z,8.10
2022-11-05T09:57:15.540Z,8.30
2022-11-05T09:58:15.528Z,9.10
2022-11-05T09:59:15.516Z,8.40
2022-11-05T10:00:15.512Z,8.90
2022-11-05T10:01:15.672Z,8.50
2022-11-05T10:02:15.582Z,8.20
2022-11-05T10:03:15.481Z,9.10
2022-11-05T10:04:15.467Z,8.50
2022-11-05T10:05:15.501Z,8.30
2022-11-05T10:06:15.457Z,8.70
2022-11-05T10:07:15.440Z,8.80
2022-11-05T10:08:15.452Z,8.40
2022-11-05T10:09:15.416Z,8.30
2022-11-05T10:10:15.403Z,9.20
2022-11-05T10:11:15.401Z,9.00
2022-11-05T10:12:15.389Z,8.70
2022-11-05T10:13:15.379Z,8.60
2022-11-05T10:14:15.362Z,8.10
2022-11-05T10:15:15.353Z,7.40
2022-11-05T10:16:15.340Z,8.40
2022-11-05T10:17:15.354Z,8.20
2022-11-05T10:18:15.326Z,7.90
2022-11-05T10:19:15.314Z,8.30
2022-11-05T10:20:15.302Z,8.10
2022-11-05T10:21:15.287Z,8.00
2022-11-05T10:22:15.278Z,7.60
2022-11-05T10:23:15.265Z,7.90
2022-11-05T10:24:15.259Z,7.70
2022-11-05T10:25:15.256Z,7.80
2022-11-05T10:26:15.236Z,7.40
2022-11-05T10:27:15.223Z,7.70
2022-11-05T10:28:15.215Z,8.90
2022-11-05T10:29:15.207Z,8.80
2022-11-05T10:30:15.197Z,7.80
2022-11-05T10:31:15.180Z,8.40
2022-11-05T10:32:15.167Z,8.00
2022-11-05T10:33:15.177Z,8.30
2022-11-05T10:34:15.148Z,7.10
2022-11-05T10:35:15.140Z,7.50
2022-11-05T10:36:15.129Z,7.90
2022-11-05T10:37:15.118Z,7.70
2022-11-05T10:38:15.113Z,7.30
2022-11-05T10:39:15.103Z,7.50
2022-11-05T10:40:15.082Z,7.60
2022-11-05T10:41:15.072Z,8.00
2022-11-05T10:42:15.057Z,7.60
2022-11-05T10:43:15.129Z,7.60
2022-11-05T10:44:18.811Z,7.30
2022-11-05T10:45:15.031Z,7.20
2022-11-05T10:46:15.015Z,6.30
2022-11-05T10:47:15.009Z,7.10
2022-11-05T10:48:14.992Z,6.70
2022-11-05T10:49:15.000Z,6.70
2022-11-05T10:50:14.972Z,6.40
2022-11-05T10:51:14.962Z,6.50
2022-11-05T10:52:14.948Z,6.30
2022-11-05T10:53:14.992Z,6.70
2022-11-05T10:54:14.923Z,6.20
2022-11-05T10:55:14.916Z,6.80
2022-11-05T10:56:14.907Z,6.30
2022-11-05T10:57:14.891Z,6.80
2022-11-05T10:58:14.883Z,6.60
2022-11-05T10:59:14.875Z,6.90
2022-11-05T11:00:14.863Z,6.50
2022-11-05T11:01:14.881Z,6.20
2022-11-05T11:02:14.930Z,6.40
2022-11-05T11:03:14.831Z,7.30
2022-11-05T11:04:14.815Z,6.90
2022-11-05T11:05:14.918Z,7.30
2022-11-05T11:06:14.789Z,7.30
2022-11-05T11:07:14.780Z,7.60
2022-11-05T11:08:14.769Z,7.00
2022-11-05T11:09:14.756Z,7.40
2022-11-05T11:10:14.746Z,6.50
2022-11-05T11:11:14.731Z,7.10
2022-11-05T11:12:14.721Z,6.70
2022-11-05T11:13:14.710Z,7.10
2022-11-05T11:14:14.707Z,6.00
2022-11-05T11:15:14.690Z,6.30
2022-11-05T11:16:14.682Z,6.30
2022-11-05T11:17:14.665Z,6.50
2022-11-05T11:18:14.650Z,6.00
2022-11-05T11:19:14.641Z,6.10
2022-11-05T11:20:14.633Z,6.00
2022-11-05T11:21:14.642Z,5.90
2022-11-05T11:22:14.607Z,5.70
2022-11-05T11:23:15.251Z,5.50
2022-11-05T11:24:14.590Z,5.20
2022-11-05T11:25:14.575Z,6.00
2022-11-05T11:26:14.567Z,6.30
2022-11-05T11:27:14.550Z,5.50
2022-11-05T11:28:14.538Z,5.70
2022-11-05T11:29:14.534Z,5.70
2022-11-05T11:30:14.510Z,6.20
2022-11-05T11:31:14.503Z,5.80
2022-11-05T11:32:14.490Z,6.00
2022-11-05T11:33:14.806Z,6.20
2022-11-05T11:34:14.455Z,6.30
2022-11-05T11:35:14.451Z,6.40
2022-11-05T11:36:14.435Z,7.10
2022-11-05T11:37:19.201Z,6.80
2022-11-05T11:38:14.414Z,6.50
2022-11-05T11:39:14.396Z,6.30
2022-11-05T11:40:14.390Z,7.00
2022-11-05T11:41:14.369Z,6.90
2022-11-05T11:42:14.356Z,6.50
2022-11-05T11:43:14.523Z,6.90
2022-11-05T11:44:14.330Z,6.60
2022-11-05T11:45:14.314Z,7.30
2022-11-05T11:46:15.216Z,6.90
2022-11-05T11:47:14.292Z,6.80
2022-11-05T11:48:14.271Z,7.00
2022-11-05T11:49:14.271Z,7.30
2022-11-05T11:50:14.240Z,6.70
2022-11-05T11:51:14.239Z,6.80
2022-11-05T11:52:14.218Z,6.60
2022-11-05T11:53:14.334Z,6.80
2022-11-05T11:54:14.194Z,6.50
2022-11-05T11:55:14.182Z,6.40
2022-11-05T11:56:14.165Z,6.80
2022-11-05T11:57:15.240Z,6.00
2022-11-05T11:58:14.132Z,7.10
2022-11-05T11:59:14.145Z,6.30
2022-11-05T12:00:14.119Z,5.80
2022-11-05T12:01:14.101Z,6.10
2022-11-05T12:02:14.199Z,6.40
2022-11-05T12:03:14.626Z,5.70
2022-11-05T12:04:14.055Z,6.10
2022-11-05T12:05:14.046Z,5.30
2022-11-05T12:06:14.025Z,5.60
2022-11-05T12:07:14.020Z,5.70
2022-11-05T12:08:14.029Z,5.40
2022-11-05T12:09:14.006Z,5.60
2022-11-05T12:10:14.067Z,5.70
2022-11-05T12:11:13.960Z,5.40
2022-11-05T12:12:13.945Z,5.20
2022-11-05T12:13:14.168Z,5.00
2022-11-05T12:14:13.910Z,5.10
2022-11-05T12:15:13.900Z,4.80
2022-11-05T12:16:13.883Z,4.90
2022-11-05T12:17:13.876Z,4.70
2022-11-05T12:18:13.860Z,5.10
2022-11-05T12:19:13.843Z,5.00
2022-11-05T12:20:13.959Z,4.40
2022-11-05T12:21:13.820Z,4.70
2022-11-05T12:22:13.806Z,5.80
2022-11-05T12:23:14.222Z,4.40
2022-11-05T12:24:13.766Z,4.60
2022-11-05T12:25:13.868Z,4.70
2022-11-05T12:26:13.732Z,4.90
2022-11-05T12:27:13.721Z,4.60
2022-11-05T12:28:13.710Z,4.80
2022-11-05T12:29:18.785Z,4.70
2022-11-05T12:30:13.739Z,4.80
2022-11-05T12:31:13.657Z,4.90
2022-11-05T12:32:13.705Z,4.70
2022-11-05T12:33:14.033Z,5.20
2022-11-05T12:34:13.613Z,4.50
2022-11-05T12:35:13.598Z,4.40
2022-11-05T12:36:13.588Z,4.50
2022-11-05T12:37:13.567Z,4.60
2022-11-05T12:38:13.554Z,4.20
2022-11-05T12:39:13.536Z,4.30
2022-11-05T12:40:13.527Z,4.90
2022-11-05T12:41:13.534Z,4.60
2022-11-05T12:42:13.492Z,4.50
2022-11-05T12:43:13.906Z,4.00
2022-11-05T12:44:13.461Z,4.30
2022-11-05T12:45:13.443Z,4.40
2022-11-05T12:46:13.435Z,4.20
2022-11-05T12:47:13.415Z,4.10
2022-11-05T12:48:13.403Z,4.10
2022-11-05T12:49:13.383Z,4.00
2022-11-05T12:50:13.369Z,4.00
2022-11-05T12:51:13.355Z,3.90
2022-11-05T12:52:13.335Z,4.00
2022-11-05T12:53:13.690Z,3.90
2022-11-05T12:54:13.305Z,4.60
2022-11-05T12:55:13.308Z,3.40
2022-11-05T12:56:13.276Z,3.30
2022-11-05T12:57:13.280Z,3.50
2022-11-05T12:58:13.246Z,3.70
2022-11-05T12:59:13.233Z,3.30
2022-11-05T13:00:13.213Z,3.30
2022-11-05T13:01:13.250Z,3.60
2022-11-05T13:02:13.404Z,3.80
2022-11-05T13:03:13.604Z,3.50